createdAt,value
2023-07-31T00:00:54.604Z,99.99
2023-07-31T00:01:54.617Z,99.99
2023-07-31T00:02:55.850Z,99.99
2023-07-31T00:03:54.656Z,99.99
2023-07-31T00:04:54.545Z,99.99
2023-07-31T00:05:54.559Z,99.99
2023-07-31T00:06:54.558Z,99.99
2023-07-31T00:07:54.534Z,99.99
2023-07-31T00:08:54.521Z,99.99
2023-07-31T00:09:54.523Z,99.99
2023-07-31T00:10:54.497Z,99.99
2023-07-31T00:11:54.476Z,99.99
2023-07-31T00:12:54.472Z,99.99
2023-07-31T00:13:54.452Z,99.99
2023-07-31T00:14:54.449Z,99.99
2023-07-31T00:15:54.446Z,99.99
2023-07-31T00:16:54.439Z,99.99
2023-07-31T00:17:54.428Z,99.99
2023-07-31T00:18:54.408Z,99.99
2023-07-31T00:19:54.394Z,99.99
2023-07-31T00:20:54.382Z,99.99
2023-07-31T00:21:54.345Z,99.99
2023-07-31T00:22:54.361Z,99.99
2023-07-31T00:23:54.375Z,99.99
2023-07-31T00:24:54.348Z,99.99
2023-07-31T00:25:54.311Z,99.99
2023-07-31T00:26:54.338Z,99.99
2023-07-31T00:27:54.383Z,99.99
2023-07-31T00:28:54.308Z,99.99
2023-07-31T00:29:54.311Z,99.99
2023-07-31T00:30:54.263Z,99.99
2023-07-31T00:31:54.253Z,99.99
2023-07-31T00:32:54.260Z,99.99
2023-07-31T00:33:54.218Z,99.99
2023-07-31T00:34:54.226Z,99.99
2023-07-31T00:35:54.205Z,99.99
2023-07-31T00:36:54.190Z,99.99
2023-07-31T00:37:54.173Z,99.99
2023-07-31T00:38:54.174Z,99.99
2023-07-31T00:39:54.184Z,99.99
2023-07-31T00:40:54.172Z,99.99
2023-07-31T00:41:54.141Z,99.99
2023-07-31T00:42:54.143Z,99.99
2023-07-31T00:43:54.123Z,99.99
2023-07-31T00:44:54.106Z,99.99
2023-07-31T00:45:54.145Z,99.99
2023-07-31T00:46:54.077Z,99.99
2023-07-31T00:47:54.113Z,99.99
2023-07-31T00:48:54.066Z,99.99
2023-07-31T00:49:54.063Z,99.99
2023-07-31T00:50:54.049Z,99.99
2023-07-31T00:51:54.014Z,99.99
2023-07-31T00:52:54.022Z,99.99
2023-07-31T00:53:54.002Z,99.99
2023-07-31T00:54:54.098Z,99.99
2023-07-31T00:55:53.969Z,99.99
2023-07-31T00:56:53.964Z,99.99
2023-07-31T00:57:53.998Z,99.99
2023-07-31T00:58:53.953Z,99.99
2023-07-31T00:59:53.921Z,99.99
2023-07-31T01:00:53.957Z,99.99
2023-07-31T01:01:53.912Z,99.99
2023-07-31T01:02:53.988Z,99.99
2023-07-31T01:03:53.889Z,99.99
2023-07-31T01:04:53.886Z,99.99
2023-07-31T01:05:53.864Z,99.99
2023-07-31T01:06:53.861Z,99.99
2023-07-31T01:07:53.852Z,99.99
2023-07-31T01:08:53.845Z,99.99
2023-07-31T01:09:53.829Z,99.99
2023-07-31T01:10:53.810Z,99.99
2023-07-31T01:11:53.799Z,99.99
2023-07-31T01:12:53.792Z,99.99
2023-07-31T01:13:53.800Z,99.99
2023-07-31T01:14:53.759Z,99.99
2023-07-31T01:15:53.739Z,99.99
2023-07-31T01:16:53.784Z,99.99
2023-07-31T01:17:53.785Z,99.99
2023-07-31T01:18:53.741Z,99.99
2023-07-31T01:19:53.726Z,99.99
2023-07-31T01:20:53.708Z,99.99
2023-07-31T01:21:53.697Z,99.99
2023-07-31T01:22:53.680Z,99.99
2023-07-31T01:23:53.678Z,99.99
2023-07-31T01:24:53.652Z,99.99
2023-07-31T01:25:53.644Z,99.99
2023-07-31T01:26:53.625Z,99.99
2023-07-31T01:27:53.616Z,99.99
2023-07-31T01:28:53.612Z,99.99
2023-07-31T01:29:53.607Z,99.99
2023-07-31T01:30:53.629Z,99.99
2023-07-31T01:31:53.564Z,99.99
2023-07-31T01:32:53.626Z,99.99
2023-07-31T01:33:53.579Z,99.99
2023-07-31T01:34:53.534Z,99.99
2023-07-31T01:35:53.528Z,99.99
2023-07-31T01:36:53.507Z,99.99
2023-07-31T01:37:53.496Z,99.99
2023-07-31T01:38:53.485Z,99.99
2023-07-31T01:39:53.493Z,99.99
2023-07-31T01:40:53.483Z,99.99
2023-07-31T01:41:53.451Z,99.99
2023-07-31T01:42:53.485Z,99.99
2023-07-31T01:43:53.440Z,99.99
2023-07-31T01:44:53.445Z,99.99
2023-07-31T01:45:53.424Z,99.99
2023-07-31T01:46:53.482Z,99.99
2023-07-31T01:47:53.465Z,99.99
2023-07-31T01:48:53.385Z,99.99
2023-07-31T01:49:53.378Z,99.99
2023-07-31T01:50:53.378Z,99.99
2023-07-31T01:51:53.344Z,99.99
2023-07-31T01:52:53.330Z,99.99
2023-07-31T01:53:53.361Z,99.99
2023-07-31T01:54:53.328Z,99.99
2023-07-31T01:55:53.283Z,99.99
2023-07-31T01:56:53.296Z,99.99
2023-07-31T01:57:53.298Z,99.99
2023-07-31T01:58:53.289Z,99.99
2023-07-31T01:59:53.251Z,99.99
2023-07-31T02:00:53.255Z,99.99
2023-07-31T02:01:54.946Z,99.99
2023-07-31T02:02:53.317Z,99.99
2023-07-31T02:03:53.258Z,99.99
2023-07-31T02:04:53.209Z,99.99
2023-07-31T02:05:53.190Z,99.99
2023-07-31T02:06:53.189Z,99.99
2023-07-31T02:07:53.184Z,99.99
2023-07-31T02:08:53.173Z,99.99
2023-07-31T02:09:53.164Z,99.99
2023-07-31T02:10:53.132Z,99.99
2023-07-31T02:11:53.132Z,99.99
2023-07-31T02:12:53.102Z,99.99
2023-07-31T02:13:53.093Z,99.99
2023-07-31T02:14:53.124Z,99.99
2023-07-31T02:15:53.167Z,99.99
2023-07-31T02:16:53.125Z,99.99
2023-07-31T02:17:53.063Z,99.99
2023-07-31T02:18:53.049Z,99.99
2023-07-31T02:19:53.023Z,99.99
2023-07-31T02:20:53.058Z,99.99
2023-07-31T02:21:53.023Z,99.99
2023-07-31T02:22:52.996Z,99.99
2023-07-31T02:23:53.048Z,99.99
2023-07-31T02:24:52.990Z,99.99
2023-07-31T02:25:52.986Z,99.99
2023-07-31T02:26:52.954Z,99.99
2023-07-31T02:27:52.969Z,99.99
2023-07-31T02:28:52.933Z,99.99
2023-07-31T02:29:52.918Z,99.99
2023-07-31T02:30:52.928Z,99.99
2023-07-31T02:31:52.951Z,99.99
2023-07-31T02:32:52.904Z,99.99
2023-07-31T02:33:52.877Z,99.99
2023-07-31T02:34:52.858Z,99.99
2023-07-31T02:35:52.860Z,99.99
2023-07-31T02:36:52.828Z,99.99
2023-07-31T02:37:52.848Z,99.99
2023-07-31T02:38:52.829Z,99.99
2023-07-31T02:39:52.803Z,99.99
2023-07-31T02:40:52.794Z,99.99
2023-07-31T02:41:52.789Z,99.99
2023-07-31T02:42:52.773Z,99.99
2023-07-31T02:43:52.776Z,99.99
2023-07-31T02:44:52.752Z,99.99
2023-07-31T02:45:52.837Z,99.99
2023-07-31T02:46:52.732Z,99.99
2023-07-31T02:47:52.771Z,99.99
2023-07-31T02:48:52.719Z,99.99
2023-07-31T02:49:52.709Z,99.99
2023-07-31T02:50:52.682Z,99.99
2023-07-31T02:51:52.687Z,99.99
2023-07-31T02:52:52.649Z,99.99
2023-07-31T02:53:52.645Z,99.99
2023-07-31T02:54:52.639Z,99.99
2023-07-31T02:55:52.616Z,99.99
2023-07-31T02:56:52.624Z,99.99
2023-07-31T02:57:52.600Z,99.99
2023-07-31T02:58:52.590Z,99.99
2023-07-31T02:59:52.591Z,99.99
2023-07-31T03:00:52.560Z,99.99
2023-07-31T03:01:52.622Z,99.99
2023-07-31T03:02:52.596Z,99.99
2023-07-31T03:03:52.542Z,99.99
2023-07-31T03:04:52.518Z,99.99
2023-07-31T03:05:52.528Z,99.99
2023-07-31T03:06:52.483Z,99.99
2023-07-31T03:07:52.494Z,99.99
2023-07-31T03:08:52.486Z,99.99
2023-07-31T03:09:52.477Z,99.99
2023-07-31T03:10:52.456Z,99.99
2023-07-31T03:11:52.452Z,99.99
2023-07-31T03:12:52.445Z,99.99
2023-07-31T03:13:52.425Z,99.99
2023-07-31T03:14:52.440Z,99.99
2023-07-31T03:15:52.516Z,99.99
2023-07-31T03:16:52.388Z,99.99
2023-07-31T03:17:52.422Z,99.99
2023-07-31T03:18:52.379Z,99.99
2023-07-31T03:19:52.346Z,99.99
2023-07-31T03:20:52.332Z,99.99
2023-07-31T03:21:52.337Z,99.99
2023-07-31T03:22:52.328Z,99.99
2023-07-31T03:23:52.362Z,99.99
2023-07-31T03:24:52.342Z,99.99
2023-07-31T03:25:52.288Z,99.99
2023-07-31T03:26:52.291Z,99.99
2023-07-31T03:27:52.293Z,99.99
2023-07-31T03:28:52.268Z,99.99
2023-07-31T03:29:52.500Z,99.99
2023-07-31T03:30:52.232Z,99.99
2023-07-31T03:31:52.270Z,99.99
2023-07-31T03:32:52.257Z,99.99
2023-07-31T03:33:52.216Z,99.99
2023-07-31T03:34:52.194Z,99.99
2023-07-31T03:35:52.171Z,99.99
2023-07-31T03:36:52.160Z,99.99
2023-07-31T03:37:52.163Z,99.99
2023-07-31T03:38:52.152Z,99.99
2023-07-31T03:39:52.139Z,99.99
2023-07-31T03:40:52.137Z,99.99
2023-07-31T03:41:52.111Z,99.99
2023-07-31T03:42:52.078Z,99.99
2023-07-31T03:43:52.089Z,99.99
2023-07-31T03:44:52.078Z,99.99
2023-07-31T03:45:52.062Z,99.99
2023-07-31T03:46:52.070Z,99.99
2023-07-31T03:47:52.063Z,99.99
2023-07-31T03:48:52.049Z,99.99
2023-07-31T03:49:52.023Z,99.99
2023-07-31T03:50:52.030Z,99.99
2023-07-31T03:51:52.072Z,99.99
2023-07-31T03:52:51.975Z,99.99
2023-07-31T03:53:51.976Z,99.99
2023-07-31T03:54:51.961Z,99.99
2023-07-31T03:55:51.940Z,99.99
2023-07-31T03:56:51.932Z,99.99
2023-07-31T03:57:51.955Z,99.99
2023-07-31T03:58:51.928Z,99.99
2023-07-31T03:59:51.899Z,99.99
2023-07-31T04:00:51.906Z,99.99
2023-07-31T04:01:51.888Z,99.99
2023-07-31T04:02:51.899Z,99.99
2023-07-31T04:03:51.854Z,99.99
2023-07-31T04:04:51.859Z,99.99
2023-07-31T04:05:51.839Z,99.99
2023-07-31T04:06:51.827Z,99.99
2023-07-31T04:07:51.811Z,99.99
2023-07-31T04:08:51.787Z,99.99
2023-07-31T04:09:51.789Z,99.99
2023-07-31T04:10:51.781Z,99.99
2023-07-31T04:11:51.774Z,99.99
2023-07-31T04:12:51.767Z,99.99
2023-07-31T04:13:51.765Z,99.99
2023-07-31T04:14:51.731Z,99.99
2023-07-31T04:15:51.761Z,99.99
2023-07-31T04:16:51.777Z,99.99
2023-07-31T04:17:51.743Z,99.99
2023-07-31T04:18:51.692Z,99.99
2023-07-31T04:19:51.716Z,99.99
2023-07-31T04:20:51.664Z,99.99
2023-07-31T04:21:51.683Z,99.99
2023-07-31T04:22:51.648Z,99.99
2023-07-31T04:23:51.622Z,99.99
2023-07-31T04:24:51.624Z,99.99
2023-07-31T04:25:51.619Z,99.99
2023-07-31T04:26:51.585Z,99.99
2023-07-31T04:27:51.610Z,99.99
2023-07-31T04:28:51.598Z,99.99
2023-07-31T04:29:51.575Z,99.99
2023-07-31T04:30:51.585Z,99.99
2023-07-31T04:31:51.569Z,99.99
2023-07-31T04:32:51.613Z,99.99
2023-07-31T04:33:51.525Z,99.99
2023-07-31T04:34:51.505Z,99.99
2023-07-31T04:35:51.500Z,99.99
2023-07-31T04:36:51.505Z,99.99
2023-07-31T04:37:51.503Z,99.99
2023-07-31T04:38:51.554Z,99.99
2023-07-31T04:39:51.465Z,99.99
2023-07-31T04:40:51.456Z,99.99
2023-07-31T04:41:51.453Z,99.99
2023-07-31T04:42:51.441Z,99.99
2023-07-31T04:43:51.456Z,99.99
2023-07-31T04:44:51.398Z,99.99
2023-07-31T04:45:51.434Z,99.99
2023-07-31T04:46:51.454Z,99.99
2023-07-31T04:47:51.369Z,99.99
2023-07-31T04:48:51.390Z,99.99
2023-07-31T04:49:51.357Z,99.99
2023-07-31T04:50:51.341Z,99.99
2023-07-31T04:51:51.319Z,99.99
2023-07-31T04:52:51.319Z,99.99
2023-07-31T04:53:51.284Z,99.99
2023-07-31T04:54:51.282Z,99.99
2023-07-31T04:55:51.274Z,99.99
2023-07-31T04:56:51.262Z,99.99
2023-07-31T04:57:51.264Z,99.99
2023-07-31T04:58:51.245Z,99.99
2023-07-31T04:59:51.622Z,99.99
2023-07-31T05:00:51.243Z,99.99
2023-07-31T05:01:51.306Z,99.99
2023-07-31T05:02:51.298Z,99.99
2023-07-31T05:03:51.242Z,99.99
2023-07-31T05:04:51.178Z,99.99
2023-07-31T05:05:51.163Z,99.99
2023-07-31T05:06:51.148Z,99.99
2023-07-31T05:07:51.154Z,99.99
2023-07-31T05:08:51.130Z,99.99
2023-07-31T05:09:51.136Z,99.99
2023-07-31T05:10:51.122Z,99.99
2023-07-31T05:11:51.098Z,99.99
2023-07-31T05:12:51.109Z,99.99
2023-07-31T05:13:51.096Z,99.99
2023-07-31T05:14:51.039Z,99.99
2023-07-31T05:15:51.074Z,99.99
2023-07-31T05:16:51.071Z,99.99
2023-07-31T05:17:51.058Z,99.99
2023-07-31T05:18:51.031Z,99.99
2023-07-31T05:19:51.036Z,99.99
2023-07-31T05:20:50.978Z,99.99
2023-07-31T05:21:50.981Z,99.99
2023-07-31T05:22:50.970Z,99.99
2023-07-31T05:23:50.959Z,99.99
2023-07-31T05:24:50.943Z,99.99
2023-07-31T05:25:50.938Z,99.99
2023-07-31T05:26:50.916Z,99.99
2023-07-31T05:27:50.922Z,99.99
2023-07-31T05:28:50.894Z,99.99
2023-07-31T05:29:50.904Z,99.99
2023-07-31T05:30:50.885Z,99.99
2023-07-31T05:31:50.910Z,99.99
2023-07-31T05:32:50.885Z,99.99
2023-07-31T05:33:50.842Z,99.99
2023-07-31T05:34:50.852Z,99.99
2023-07-31T05:35:50.846Z,99.99
2023-07-31T05:36:50.805Z,99.99
2023-07-31T05:37:50.797Z,99.99
2023-07-31T05:38:50.776Z,99.99
2023-07-31T05:39:50.781Z,99.99
2023-07-31T05:40:50.798Z,99.99
2023-07-31T05:41:50.778Z,99.99
2023-07-31T05:42:50.750Z,99.99
2023-07-31T05:43:50.745Z,99.99
2023-07-31T05:44:50.724Z,99.99
2023-07-31T05:45:50.720Z,99.99
2023-07-31T05:46:50.681Z,99.99
2023-07-31T05:47:50.698Z,99.99
2023-07-31T05:48:50.673Z,99.99
2023-07-31T05:49:50.674Z,99.99
2023-07-31T05:50:50.647Z,99.99
2023-07-31T05:51:50.628Z,99.99
2023-07-31T05:52:50.617Z,99.99
2023-07-31T05:53:50.630Z,99.99
2023-07-31T05:54:50.592Z,99.99
2023-07-31T05:55:50.598Z,99.99
2023-07-31T05:56:50.587Z,99.99
2023-07-31T05:57:50.604Z,99.99
2023-07-31T05:58:50.542Z,99.99
2023-07-31T05:59:50.542Z,99.99
2023-07-31T06:00:50.544Z,99.99
2023-07-31T06:01:50.588Z,99.99
2023-07-31T06:02:50.665Z,99.99
2023-07-31T06:03:50.603Z,99.99
2023-07-31T06:04:50.585Z,99.99
2023-07-31T06:05:50.494Z,99.99
2023-07-31T06:06:50.463Z,99.99
2023-07-31T06:07:50.462Z,99.99
2023-07-31T06:08:50.452Z,99.99
2023-07-31T06:09:50.585Z,99.99
2023-07-31T06:10:50.444Z,99.99
2023-07-31T06:11:50.418Z,99.99
2023-07-31T06:12:50.405Z,99.99
2023-07-31T06:13:50.398Z,99.99
2023-07-31T06:14:50.381Z,99.99
2023-07-31T06:15:50.403Z,99.99
2023-07-31T06:16:50.373Z,99.99
2023-07-31T06:17:50.365Z,99.99
2023-07-31T06:18:50.328Z,99.99
2023-07-31T06:19:50.318Z,99.99
2023-07-31T06:20:50.290Z,99.99
2023-07-31T06:21:50.285Z,99.99
2023-07-31T06:22:50.297Z,99.99
2023-07-31T06:23:50.280Z,99.99
2023-07-31T06:24:50.264Z,99.99
2023-07-31T06:25:50.258Z,99.99
2023-07-31T06:26:50.234Z,99.99
2023-07-31T06:27:50.246Z,99.99
2023-07-31T06:28:50.234Z,99.99
2023-07-31T06:29:50.211Z,99.99
2023-07-31T06:30:50.200Z,99.99
2023-07-31T06:31:50.238Z,99.99
2023-07-31T06:32:50.245Z,99.99
2023-07-31T06:33:50.182Z,99.99
2023-07-31T06:34:50.148Z,99.99
2023-07-31T06:35:50.131Z,99.99
2023-07-31T06:36:50.129Z,99.99
2023-07-31T06:37:50.131Z,99.99
2023-07-31T06:38:50.179Z,99.99
2023-07-31T06:39:50.088Z,99.99
2023-07-31T06:40:50.086Z,99.99
2023-07-31T06:41:50.060Z,99.99
2023-07-31T06:42:50.051Z,99.99
2023-07-31T06:43:50.048Z,99.99
2023-07-31T06:44:50.040Z,99.99
2023-07-31T06:45:50.061Z,99.99
2023-07-31T06:46:50.002Z,99.99
2023-07-31T06:47:50.048Z,99.99
2023-07-31T06:48:49.998Z,99.99
2023-07-31T06:49:49.982Z,99.99
2023-07-31T06:50:49.966Z,99.99
2023-07-31T06:51:49.964Z,99.99
2023-07-31T06:52:49.966Z,99.99
2023-07-31T06:53:49.945Z,99.99
2023-07-31T06:54:49.926Z,99.99
2023-07-31T06:55:49.913Z,99.99
2023-07-31T06:56:49.890Z,99.99
2023-07-31T06:57:49.910Z,99.99
2023-07-31T06:58:49.886Z,99.99
2023-07-31T06:59:49.873Z,99.99
2023-07-31T07:00:49.896Z,99.99
2023-07-31T07:01:49.842Z,99.99
2023-07-31T07:02:49.852Z,99.99
2023-07-31T07:03:49.841Z,99.58
2023-07-31T07:04:49.798Z,97.96
2023-07-31T07:05:49.839Z,97.35
2023-07-31T07:06:49.806Z,97.35
2023-07-31T07:07:49.781Z,97.96
2023-07-31T07:08:49.768Z,98.02
2023-07-31T07:09:49.738Z,98.43
2023-07-31T07:10:49.748Z,99.13
2023-07-31T07:11:49.730Z,99.04
2023-07-31T07:12:49.759Z,98.12
2023-07-31T07:13:49.723Z,97.56
2023-07-31T07:14:49.695Z,98.18
2023-07-31T07:15:49.696Z,96.04
2023-07-31T07:16:49.689Z,95.23
2023-07-31T07:17:49.723Z,95.54
2023-07-31T07:19:02.276Z,95.29
2023-07-31T07:19:49.620Z,95.29
2023-07-31T07:20:49.628Z,96.51
2023-07-31T07:21:49.633Z,95.59
2023-07-31T07:22:49.612Z,95.19
2023-07-31T07:23:49.593Z,94.74
2023-07-31T07:24:49.603Z,95.14
2023-07-31T07:25:49.581Z,94.54
2023-07-31T07:26:49.566Z,94.74
2023-07-31T07:27:49.545Z,96.26
2023-07-31T07:28:49.562Z,93.42
2023-07-31T07:29:49.530Z,91.90
2023-07-31T07:30:49.564Z,93.02
2023-07-31T07:31:49.614Z,93.83
2023-07-31T07:32:49.556Z,93.32
2023-07-31T07:33:49.530Z,92.87
2023-07-31T07:34:49.480Z,93.38
2023-07-31T07:35:49.461Z,94.19
2023-07-31T07:36:49.449Z,94.39
2023-07-31T07:37:50.946Z,94.70
2023-07-31T07:38:49.426Z,93.38
2023-07-31T07:39:49.411Z,92.87
2023-07-31T07:40:49.417Z,94.04
2023-07-31T07:41:49.399Z,92.83
2023-07-31T07:42:49.390Z,91.92
2023-07-31T07:43:49.352Z,91.16
2023-07-31T07:44:49.376Z,90.56
2023-07-31T07:45:49.340Z,89.91
2023-07-31T07:46:49.391Z,89.40
2023-07-31T07:47:49.355Z,88.70
2023-07-31T07:48:49.318Z,89.66
2023-07-31T07:49:53.137Z,89.26
2023-07-31T07:50:49.318Z,88.96
2023-07-31T07:51:49.270Z,90.03
2023-07-31T07:52:49.290Z,85.58
2023-07-31T07:53:49.257Z,88.10
2023-07-31T07:54:49.370Z,86.95
2023-07-31T07:55:49.239Z,87.15
2023-07-31T07:56:49.309Z,88.06
2023-07-31T07:57:49.233Z,88.17
2023-07-31T07:58:49.213Z,86.85
2023-07-31T07:59:49.176Z,86.45
2023-07-31T08:00:49.246Z,84.33
2023-07-31T08:01:49.182Z,85.44
2023-07-31T08:02:49.210Z,85.54
2023-07-31T08:03:49.201Z,84.83
2023-07-31T08:04:49.129Z,84.99
2023-07-31T08:05:49.135Z,85.10
2023-07-31T08:06:49.130Z,85.90
2023-07-31T08:07:49.101Z,86.04
2023-07-31T08:08:49.113Z,86.35
2023-07-31T08:09:49.086Z,85.34
2023-07-31T08:10:49.068Z,85.24
2023-07-31T08:11:49.067Z,85.94
2023-07-31T08:12:49.060Z,86.04
2023-07-31T08:13:49.037Z,86.95
2023-07-31T08:14:49.041Z,86.35
2023-07-31T08:15:49.021Z,85.94
2023-07-31T08:16:49.042Z,83.01
2023-07-31T08:17:49.028Z,83.78
2023-07-31T08:18:49.041Z,83.78
2023-07-31T08:19:49.016Z,84.69
2023-07-31T08:20:48.963Z,83.78
2023-07-31T08:21:48.975Z,84.49
2023-07-31T08:22:48.960Z,83.88
2023-07-31T08:23:48.919Z,85.56
2023-07-31T08:24:48.936Z,82.23
2023-07-31T08:25:48.907Z,82.93
2023-07-31T08:26:48.920Z,81.89
2023-07-31T08:27:48.905Z,82.90
2023-07-31T08:28:48.874Z,83.40
2023-07-31T08:29:48.873Z,81.79
2023-07-31T08:30:48.981Z,81.28
2023-07-31T08:31:48.881Z,78.56
2023-07-31T08:32:48.899Z,78.36
2023-07-31T08:33:48.844Z,78.36
2023-07-31T08:34:48.838Z,78.92
2023-07-31T08:35:48.822Z,79.13
2023-07-31T08:36:48.813Z,79.73
2023-07-31T08:37:48.802Z,78.28
2023-07-31T08:38:48.797Z,77.88
2023-07-31T08:39:48.771Z,78.35
2023-07-31T08:40:48.760Z,77.95
2023-07-31T08:41:48.751Z,78.35
2023-07-31T08:42:48.749Z,80.52
2023-07-31T08:43:48.736Z,80.02
2023-07-31T08:44:48.721Z,79.72
2023-07-31T08:45:48.739Z,79.88
2023-07-31T08:46:48.716Z,76.97
2023-07-31T08:47:48.928Z,75.70
2023-07-31T08:48:48.691Z,75.70
2023-07-31T08:49:48.684Z,76.67
2023-07-31T08:50:48.653Z,76.26
2023-07-31T08:51:48.655Z,74.85
2023-07-31T08:52:48.637Z,73.55
2023-07-31T08:53:48.656Z,76.23
2023-07-31T08:54:48.607Z,75.82
2023-07-31T08:55:48.589Z,77.33
2023-07-31T08:56:48.588Z,76.93
2023-07-31T08:57:48.646Z,76.29
2023-07-31T08:58:48.573Z,77.50
2023-07-31T08:59:48.546Z,75.68
2023-07-31T09:00:48.547Z,78.40
2023-07-31T09:01:48.606Z,76.79
2023-07-31T09:02:48.604Z,75.29
2023-07-31T09:03:48.591Z,76.39
2023-07-31T09:04:48.571Z,73.78
2023-07-31T09:05:48.501Z,73.47
2023-07-31T09:06:48.491Z,72.91
2023-07-31T09:07:48.537Z,74.78
2023-07-31T09:08:48.484Z,76.39
2023-07-31T09:09:48.459Z,74.68
2023-07-31T09:10:48.465Z,73.81
2023-07-31T09:11:48.460Z,74.41
2023-07-31T09:12:48.433Z,77.83
2023-07-31T09:13:48.483Z,76.12
2023-07-31T09:14:48.415Z,76.23
2023-07-31T09:15:48.417Z,76.43
2023-07-31T09:16:48.402Z,74.32
2023-07-31T09:17:48.458Z,74.18
2023-07-31T09:18:48.380Z,73.88
2023-07-31T09:19:48.353Z,73.88
2023-07-31T09:20:48.333Z,73.27
2023-07-31T09:21:48.370Z,72.67
2023-07-31T09:22:48.340Z,73.31
2023-07-31T09:23:48.307Z,72.67
2023-07-31T09:24:48.300Z,72.77
2023-07-31T09:25:48.300Z,75.68
2023-07-31T09:26:48.267Z,72.77
2023-07-31T09:27:48.291Z,74.08
2023-07-31T09:28:48.422Z,72.67
2023-07-31T09:29:48.268Z,73.07
2023-07-31T09:30:48.263Z,73.07
2023-07-31T09:31:48.321Z,73.18
2023-07-31T09:32:48.251Z,72.67
2023-07-31T09:33:48.212Z,72.67
2023-07-31T09:34:48.208Z,71.26
2023-07-31T09:35:48.190Z,73.98
2023-07-31T09:36:48.170Z,75.49
2023-07-31T09:37:48.154Z,75.38
2023-07-31T09:38:48.199Z,72.97
2023-07-31T09:39:48.175Z,72.77
2023-07-31T09:40:48.169Z,72.97
2023-07-31T09:41:48.110Z,72.57
2023-07-31T09:42:48.133Z,72.44
2023-07-31T09:43:48.102Z,73.54
2023-07-31T09:44:48.109Z,74.35
2023-07-31T09:45:48.123Z,74.35
2023-07-31T09:46:48.080Z,75.55
2023-07-31T09:47:48.103Z,74.44
2023-07-31T09:48:48.068Z,72.10
2023-07-31T09:49:48.072Z,71.70
2023-07-31T09:50:48.064Z,73.81
2023-07-31T09:51:48.056Z,74.81
2023-07-31T09:52:48.038Z,72.50
2023-07-31T09:53:47.994Z,74.21
2023-07-31T09:54:48.023Z,73.91
2023-07-31T09:55:47.980Z,70.89
2023-07-31T09:56:47.959Z,71.00
2023-07-31T09:57:47.956Z,71.70
2023-07-31T09:58:47.949Z,72.90
2023-07-31T09:59:47.955Z,75.31
2023-07-31T10:00:47.910Z,72.84
2023-07-31T10:01:48.004Z,73.14
2023-07-31T10:02:47.978Z,75.85
2023-07-31T10:03:47.893Z,71.83
2023-07-31T10:04:47.886Z,71.33
2023-07-31T10:05:47.878Z,73.21
2023-07-31T10:06:47.859Z,71.73
2023-07-31T10:07:47.856Z,73.84
2023-07-31T10:08:47.839Z,72.84
2023-07-31T10:09:47.813Z,73.44
2023-07-31T10:10:47.839Z,73.34
2023-07-31T10:11:47.801Z,74.95
2023-07-31T10:12:47.784Z,75.25
2023-07-31T10:13:47.783Z,74.44
2023-07-31T10:14:47.789Z,76.56
2023-07-31T10:15:47.785Z,76.15
2023-07-31T10:16:47.758Z,71.36
2023-07-31T10:17:47.750Z,72.33
2023-07-31T10:18:47.751Z,74.28
2023-07-31T10:19:47.723Z,72.67
2023-07-31T10:20:47.721Z,72.47
2023-07-31T10:21:47.762Z,74.18
2023-07-31T10:22:47.690Z,74.28
2023-07-31T10:23:47.680Z,76.29
2023-07-31T10:24:47.667Z,74.58
2023-07-31T10:25:47.667Z,72.07
2023-07-31T10:26:47.667Z,71.26
2023-07-31T10:27:47.627Z,72.87
2023-07-31T10:28:47.685Z,75.29
2023-07-31T10:29:47.656Z,76.79
2023-07-31T10:30:47.638Z,71.36
2023-07-31T10:31:47.664Z,76.05
2023-07-31T10:32:47.686Z,74.85
2023-07-31T10:33:47.575Z,75.55
2023-07-31T10:34:47.567Z,71.94
2023-07-31T10:35:47.546Z,70.43
2023-07-31T10:36:47.624Z,71.53
2023-07-31T10:37:47.538Z,72.71
2023-07-31T10:38:47.505Z,74.01
2023-07-31T10:39:47.515Z,70.56
2023-07-31T10:40:47.484Z,71.13
2023-07-31T10:41:47.491Z,70.12
2023-07-31T10:42:47.472Z,71.00
2023-07-31T10:43:47.475Z,69.09
2023-07-31T10:44:47.502Z,69.26
2023-07-31T10:45:47.462Z,69.46
2023-07-31T10:46:47.516Z,69.12
2023-07-31T10:47:47.479Z,66.62
2023-07-31T10:48:47.425Z,67.82
2023-07-31T10:49:47.419Z,67.12
2023-07-31T10:50:47.420Z,70.03
2023-07-31T10:51:47.379Z,67.52
2023-07-31T10:52:47.373Z,67.39
2023-07-31T10:53:47.358Z,70.39
2023-07-31T10:54:47.340Z,68.89
2023-07-31T10:55:47.346Z,65.69
2023-07-31T10:56:47.346Z,65.19
2023-07-31T10:57:47.306Z,64.92
2023-07-31T10:58:47.365Z,66.49
2023-07-31T10:59:47.277Z,66.99
2023-07-31T11:00:47.335Z,66.19
2023-07-31T11:01:48.146Z,66.89
2023-07-31T11:02:47.258Z,64.69
2023-07-31T11:03:47.332Z,63.89
2023-07-31T11:04:47.233Z,66.39
2023-07-31T11:05:47.294Z,69.02
2023-07-31T11:06:47.199Z,67.92
2023-07-31T11:07:47.188Z,67.35
2023-07-31T11:08:47.213Z,69.06
2023-07-31T11:09:47.178Z,70.26
2023-07-31T11:10:47.172Z,68.26
2023-07-31T11:11:47.158Z,68.65
2023-07-31T11:12:47.141Z,68.15
2023-07-31T11:13:47.138Z,67.96
2023-07-31T11:14:47.215Z,68.05
2023-07-31T11:15:47.105Z,68.05
2023-07-31T11:16:47.127Z,65.65
2023-07-31T11:17:47.106Z,66.05
2023-07-31T11:18:47.088Z,66.75
2023-07-31T11:19:47.079Z,67.25
2023-07-31T11:20:47.095Z,68.55
2023-07-31T11:21:47.044Z,69.96
2023-07-31T11:22:47.001Z,69.56
2023-07-31T11:23:47.914Z,67.65
2023-07-31T11:24:46.985Z,67.25
2023-07-31T11:25:46.978Z,66.35
2023-07-31T11:26:47.070Z,66.35
2023-07-31T11:27:46.951Z,65.75
2023-07-31T11:28:46.928Z,65.62
2023-07-31T11:29:46.924Z,67.32
2023-07-31T11:30:46.967Z,68.82
2023-07-31T11:31:46.911Z,67.19
2023-07-31T11:32:46.980Z,67.89
2023-07-31T11:33:46.913Z,66.78
2023-07-31T11:34:46.878Z,67.55
2023-07-31T11:35:46.908Z,65.66
2023-07-31T11:36:46.864Z,66.89
2023-07-31T11:37:46.898Z,65.59
2023-07-31T11:38:46.906Z,66.99
2023-07-31T11:39:46.815Z,70.19
2023-07-31T11:40:46.869Z,67.52
2023-07-31T11:41:46.808Z,67.32
2023-07-31T11:42:46.835Z,68.32
2023-07-31T11:43:46.779Z,68.52
2023-07-31T11:44:46.750Z,69.12
2023-07-31T11:45:46.800Z,66.72
2023-07-31T11:46:46.821Z,68.62
2023-07-31T11:47:46.783Z,69.62
2023-07-31T11:48:46.755Z,70.32
2023-07-31T11:49:46.707Z,70.83
2023-07-31T11:50:46.700Z,69.62
2023-07-31T11:51:46.697Z,69.42
2023-07-31T11:52:46.685Z,68.82
2023-07-31T11:53:46.672Z,66.92
2023-07-31T11:54:46.662Z,67.82
2023-07-31T11:55:46.650Z,71.33
2023-07-31T11:56:46.699Z,69.82
2023-07-31T11:57:46.619Z,68.62
2023-07-31T11:58:46.621Z,67.69
2023-07-31T11:59:46.614Z,67.02
2023-07-31T12:00:46.588Z,68.82
2023-07-31T12:01:46.626Z,68.62
2023-07-31T12:02:46.595Z,67.72
2023-07-31T12:03:46.584Z,67.79
2023-07-31T12:04:46.528Z,69.59
2023-07-31T12:05:46.529Z,68.69
2023-07-31T12:06:46.535Z,69.06
2023-07-31T12:07:46.489Z,66.55
2023-07-31T12:08:46.492Z,68.05
2023-07-31T12:09:46.480Z,66.05
2023-07-31T12:10:46.457Z,66.16
2023-07-31T12:11:46.452Z,68.55
2023-07-31T12:12:46.446Z,69.16
2023-07-31T12:13:46.448Z,67.69
2023-07-31T12:14:46.443Z,65.78
2023-07-31T12:15:46.415Z,67.49
2023-07-31T12:16:46.485Z,67.09
2023-07-31T12:17:46.417Z,69.69
2023-07-31T12:18:46.383Z,69.49
2023-07-31T12:19:46.354Z,69.19
2023-07-31T12:20:46.367Z,70.53
2023-07-31T12:21:46.326Z,67.62
2023-07-31T12:22:46.345Z,70.12
2023-07-31T12:23:46.312Z,71.06
2023-07-31T12:24:46.289Z,71.06
2023-07-31T12:25:46.309Z,71.36
2023-07-31T12:26:46.263Z,71.77
2023-07-31T12:27:46.311Z,70.86
2023-07-31T12:28:46.287Z,69.66
2023-07-31T12:29:46.274Z,71.43
2023-07-31T12:30:46.246Z,71.53
2023-07-31T12:31:46.268Z,68.73
2023-07-31T12:32:46.253Z,70.16
2023-07-31T12:33:46.219Z,71.26
2023-07-31T12:34:46.197Z,71.96
2023-07-31T12:35:46.186Z,75.37
2023-07-31T12:36:46.188Z,73.40
2023-07-31T12:37:46.155Z,71.39
2023-07-31T12:38:46.157Z,72.20
2023-07-31T12:39:46.145Z,72.09
2023-07-31T12:40:46.128Z,72.06
2023-07-31T12:41:46.111Z,71.56
2023-07-31T12:42:46.089Z,71.16
2023-07-31T12:43:46.076Z,72.23
2023-07-31T12:44:46.073Z,69.56
2023-07-31T12:45:46.113Z,71.16
2023-07-31T12:46:46.057Z,72.50
2023-07-31T12:47:46.084Z,73.86
2023-07-31T12:48:46.042Z,73.36
2023-07-31T12:49:46.021Z,70.73
2023-07-31T12:50:46.004Z,70.53
2023-07-31T12:51:45.989Z,70.03
2023-07-31T12:52:45.993Z,71.00